Time;durP1;ratioP1;P1;durP2;ratioP2;P2;SDS_P1;SDS_P2;PMS_P1;PMS_P2;Temp;Humidity;BMP_temperature;BMP_pressure;BME280_temperature;BME280_humidity;BME280_pressure;Samples;Min_cycle;Max_cycle;Signal;HPM_P1;HPM_P2
2021/07/10 00:00:35;;;;;;;2.60;2.40;;;17.40;99.90;;;;;;5031150;28;20437;-53
2021/07/10 00:03:01;;;;;;;2.87;2.57;;;17.40;99.90;;;;;;5031140;28;20447;-53
2021/07/10 00:05:29;;;;;;;4.07;2.80;;;17.50;99.90;;;;;;5030785;28;20457;-53
2021/07/10 00:07:55;;;;;;;2.80;2.60;;;17.40;99.90;;;;;;5030986;28;20480;-53
2021/07/10 00:10:22;;;;;;;4.43;3.30;;;17.40;99.90;;;;;;5030779;28;20524;-53
2021/07/10 00:12:51;;;;;;;3.00;2.70;;;17.40;99.90;;;;;;5030931;28;20822;-53
2021/07/10 00:15:21;;;;;;;4.67;3.33;;;17.40;99.90;;;;;;5030740;28;20419;-53
2021/07/10 00:17:48;;;;;;;2.97;2.67;;;17.40;99.90;;;;;;5030698;28;20439;-53
2021/07/10 00:20:15;;;;;;;3.30;3.00;;;17.30;99.90;;;;;;5030324;28;20444;-53
2021/07/10 00:22:42;;;;;;;3.40;2.80;;;17.30;99.90;;;;;;5030125;28;20526;-53
2021/07/10 00:25:11;;;;;;;3.60;3.07;;;17.00;99.90;;;;;;5030750;28;20453;-53
2021/07/10 00:27:39;;;;;;;3.20;3.00;;;17.30;99.90;;;;;;5030625;28;20475;-53
2021/07/10 00:30:09;;;;;;;4.20;3.30;;;17.30;99.90;;;;;;5030247;28;20431;-53
2021/07/10 00:32:36;;;;;;;3.83;3.50;;;17.30;99.90;;;;;;5030427;28;20440;-53
2021/07/10 00:35:03;;;;;;;3.43;2.73;;;17.30;99.90;;;;;;5030450;28;20461;-53
2021/07/10 00:37:30;;;;;;;3.57;3.10;;;17.30;99.90;;;;;;5030822;28;20544;-53
2021/07/10 00:39:56;;;;;;;4.80;3.67;;;17.30;99.90;;;;;;5030198;28;20440;-53
2021/07/10 00:42:23;;;;;;;3.60;3.30;;;17.30;99.90;;;;;;5030548;28;20563;-53
2021/07/10 00:44:50;;;;;;;3.47;3.10;;;17.30;99.90;;;;;;5030261;28;20448;-53
2021/07/10 00:47:18;;;;;;;3.30;3.00;;;17.30;99.90;;;;;;5030348;28;21131;-53
2021/07/10 00:49:45;;;;;;;3.43;3.10;;;17.40;99.90;;;;;;5012228;28;20477;-54
2021/07/10 00:52:12;;;;;;;3.47;3.17;;;17.30;99.90;;;;;;5030422;28;20493;-53
2021/07/10 00:54:38;;;;;;;3.53;3.23;;;17.30;99.90;;;;;;5030230;28;20477;-53
2021/07/10 00:57:07;;;;;;;3.00;2.80;;;17.30;99.90;;;;;;5030415;28;20428;-53
2021/07/10 00:59:35;;;;;;;3.83;3.53;;;17.30;99.90;;;;;;5030582;28;20428;-53
2021/07/10 01:02:01;;;;;;;3.50;3.20;;;17.30;99.90;;;;;;5030662;28;20444;-53
2021/07/10 01:04:29;;;;;;;3.60;3.30;;;17.30;99.90;;;;;;5031061;28;20904;-53
2021/07/10 01:06:57;;;;;;;6.80;3.17;;;17.30;99.90;;;;;;5030826;28;20475;-53
2021/07/10 01:09:24;;;;;;;3.37;3.07;;;17.30;99.90;;;;;;5030201;28;20429;-53
2021/07/10 01:11:52;;;;;;;3.20;3.00;;;17.20;99.90;;;;;;5030380;28;20537;-53
2021/07/10 01:14:19;;;;;;;3.33;2.77;;;17.20;99.90;;;;;;5030690;28;20451;-53
2021/07/10 01:16:46;;;;;;;3.20;2.90;;;17.30;99.90;;;;;;5030394;28;20442;-53
2021/07/10 01:19:13;;;;;;;4.70;3.40;;;17.30;99.90;;;;;;5030636;28;20837;-53
2021/07/10 01:21:41;;;;;;;3.57;3.20;;;17.20;99.90;;;;;;5030720;28;20810;-53
2021/07/10 01:24:08;;;;;;;3.70;3.40;;;17.30;99.90;;;;;;5030434;28;20437;-53
2021/07/10 01:26:34;;;;;;;3.90;3.50;;;17.20;99.90;;;;;;5030767;28;20440;-53
2021/07/10 01:29:01;;;;;;;4.53;4.10;;;17.20;99.90;;;;;;5030299;28;20477;-53
2021/07/10 01:31:29;;;;;;;6.10;3.73;;;17.20;99.90;;;;;;5030367;28;20435;-53
2021/07/10 01:33:55;;;;;;;5.23;4.33;;;17.20;99.90;;;;;;5030457;28;20440;-53
2021/07/10 01:36:22;;;;;;;4.57;4.17;;;17.20;99.90;;;;;;5033654;28;20427;-53
2021/07/10 01:38:50;;;;;;;4.60;4.20;;;17.20;99.90;;;;;;5033772;28;20443;-53
2021/07/10 01:41:17;;;;;;;5.63;5.13;;;17.10;99.90;;;;;;5033978;28;20423;-53
2021/07/10 01:43:43;;;;;;;5.00;4.60;;;17.20;99.90;;;;;;5034069;28;20447;-53
2021/07/10 01:46:10;;;;;;;5.63;4.97;;;17.20;99.90;;;;;;5034376;28;20759;-53
2021/07/10 01:48:37;;;;;;;6.17;5.57;;;17.20;99.90;;;;;;5033798;28;20487;-53
2021/07/10 01:51:03;;;;;;;6.13;5.60;;;17.20;99.90;;;;;;5033997;28;20447;-53
2021/07/10 01:53:30;;;;;;;6.47;5.93;;;17.10;99.90;;;;;;5033746;28;20823;-54
2021/07/10 01:55:58;;;;;;;7.03;6.30;;;17.10;99.90;;;;;;5033692;28;20467;-53
2021/07/10 01:58:25;;;;;;;6.40;5.80;;;17.20;99.90;;;;;;5033344;28;20428;-53
2021/07/10 02:00:52;;;;;;;8.47;6.80;;;17.10;99.90;;;;;;5033654;28;20438;-53
2021/07/10 02:03:18;;;;;;;9.03;6.37;;;17.20;99.90;;;;;;5033885;28;20449;-53
2021/07/10 02:05:45;;;;;;;8.77;7.63;;;17.20;99.90;;;;;;5033673;28;20470;-54
2021/07/10 02:08:12;;;;;;;8.00;7.20;;;17.10;99.90;;;;;;5033378;28;20476;-53
2021/07/10 02:10:38;;;;;;;9.07;7.43;;;17.20;99.90;;;;;;5033636;28;20649;-53
2021/07/10 02:13:08;;;;;;;7.57;6.90;;;17.10;99.90;;;;;;5033680;28;20810;-53
2021/07/10 02:15:35;;;;;;;8.47;7.67;;;17.20;99.90;;;;;;5033475;28;20500;-53
2021/07/10 02:18:02;;;;;;;8.70;7.90;;;17.20;99.90;;;;;;5033144;28;20432;-54
2021/07/10 02:20:29;;;;;;;8.03;7.33;;;17.20;99.90;;;;;;5033377;28;20933;-53
2021/07/10 02:22:57;;;;;;;8.53;6.73;;;17.20;99.90;;;;;;5033615;28;20441;-53
2021/07/10 02:25:25;;;;;;;9.50;8.67;;;17.20;99.90;;;;;;5033445;28;20448;-53
2021/07/10 02:27:52;;;;;;;9.77;8.87;;;17.10;99.90;;;;;;5033428;28;21020;-53
2021/07/10 02:30:24;;;;;;;8.63;7.73;;;17.10;99.90;;;;;;5032996;28;20455;-53
2021/07/10 02:32:51;;;;;;;9.33;8.40;;;17.20;99.90;;;;;;5033288;28;20444;-53
2021/07/10 02:35:18;;;;;;;9.27;8.03;;;17.20;99.90;;;;;;5033120;28;20818;-53
2021/07/10 02:37:46;;;;;;;9.00;8.10;;;17.20;99.90;;;;;;5033263;28;20949;-53
2021/07/10 02:40:18;;;;;;;11.83;10.30;;;17.20;99.90;;;;;;5032824;28;20427;-53
2021/07/10 02:42:45;;;;;;;10.17;9.20;;;17.20;99.90;;;;;;5032215;28;20438;-53
2021/07/10 02:45:14;;;;;;;10.40;9.40;;;17.20;99.90;;;;;;5031483;28;20941;-53
2021/07/10 02:47:42;;;;;;;9.47;8.70;;;17.20;99.90;;;;;;5032789;28;20817;-53
2021/07/10 02:50:12;;;;;;;11.50;10.40;;;17.30;99.90;;;;;;5032531;28;20431;-53
2021/07/10 02:52:39;;;;;;;9.90;9.10;;;17.30;99.90;;;;;;5033172;28;20430;-53
2021/07/10 02:55:07;;;;;;;10.37;9.23;;;17.40;99.90;;;;;;5032633;28;20461;-53
2021/07/10 02:57:34;;;;;;;10.47;9.57;;;17.40;99.90;;;;;;5032801;28;20444;-54
2021/07/10 03:00:01;;;;;;;9.97;9.00;;;17.40;99.90;;;;;;5014453;28;20451;-53
2021/07/10 03:02:27;;;;;;;11.20;10.10;;;17.40;99.90;;;;;;5032634;28;20742;-53
2021/07/10 03:04:55;;;;;;;10.73;9.13;;;17.40;99.90;;;;;;5032564;28;20923;-53
2021/07/10 03:07:22;;;;;;;10.47;9.60;;;17.50;99.90;;;;;;5032772;28;20439;-53
2021/07/10 03:09:49;;;;;;;10.37;9.40;;;17.50;99.90;;;;;;5032281;28;20438;-53
2021/07/10 03:12:15;;;;;;;13.03;10.40;;;17.50;99.90;;;;;;5032498;28;20819;-53
2021/07/10 03:14:42;;;;;;;9.83;8.83;;;17.50;99.90;;;;;;5014599;28;20842;-53
2021/07/10 03:17:08;;;;;;;10.13;9.13;;;17.50;99.90;;;;;;5032269;28;20515;-53
2021/07/10 03:19:35;;;;;;;9.60;8.70;;;17.50;99.90;;;;;;5031996;28;20433;-52
2021/07/10 03:22:04;;;;;;;9.27;8.50;;;17.50;99.90;;;;;;5032619;28;20811;-53
2021/07/10 03:24:30;;;;;;;10.30;9.40;;;17.50;99.90;;;;;;5032218;28;20570;-52
2021/07/10 03:26:57;;;;;;;9.40;8.60;;;17.60;99.90;;;;;;5032076;28;20439;-53
2021/07/10 03:29:24;;;;;;;12.63;8.93;;;17.60;99.90;;;;;;5031674;28;20472;-52
2021/07/10 03:31:50;;;;;;;9.67;8.77;;;17.60;99.90;;;;;;5032163;28;20429;-53
2021/07/10 03:34:17;;;;;;;9.70;8.80;;;17.60;99.90;;;;;;5031990;28;20458;-53
2021/07/10 03:36:44;;;;;;;9.57;8.67;;;17.60;99.90;;;;;;5014343;28;20491;-52
2021/07/10 03:39:12;;;;;;;8.53;7.87;;;17.60;99.90;;;;;;5031726;28;20429;-53
2021/07/10 03:41:39;;;;;;;12.20;9.10;;;17.70;99.90;;;;;;5031936;28;20793;-53
2021/07/10 03:44:06;;;;;;;8.70;7.90;;;17.70;99.90;;;;;;5031868;28;20460;-53
2021/07/10 03:46:32;;;;;;;9.53;8.63;;;17.70;99.90;;;;;;5031977;28;20437;-53
2021/07/10 03:48:59;;;;;;;9.57;8.77;;;17.70;99.90;;;;;;5031489;28;20481;-53
2021/07/10 03:51:27;;;;;;;10.30;9.40;;;17.70;99.90;;;;;;5031994;28;20957;-52
2021/07/10 03:53:53;;;;;;;9.87;9.07;;;17.80;99.90;;;;;;5031669;28;20447;-53
2021/07/10 03:56:22;;;;;;;9.83;8.93;;;17.80;99.90;;;;;;5031572;28;20486;-53
2021/07/10 03:58:48;;;;;;;10.73;9.80;;;17.80;99.90;;;;;;5030602;28;20436;-53
2021/07/10 04:01:15;;;;;;;10.47;9.50;;;17.80;99.90;;;;;;5031685;28;20429;-53
2021/07/10 04:03:42;;;;;;;10.00;9.10;;;17.80;99.90;;;;;;5031483;28;20447;-52
2021/07/10 04:06:08;;;;;;;10.67;9.70;;;17.80;99.90;;;;;;5031680;28;20431;-53
2021/07/10 04:08:36;;;;;;;10.50;9.60;;;17.80;99.90;;;;;;5031195;28;20474;-53
2021/07/10 04:11:02;;;;;;;10.70;9.70;;;17.80;99.90;;;;;;5031402;28;20821;-53
2021/07/10 04:13:30;;;;;;;10.67;9.77;;;17.80;99.90;;;;;;5031539;28;20946;-52
2021/07/10 04:15:58;;;;;;;10.07;9.07;;;17.90;99.90;;;;;;5031332;28;20575;-53
2021/07/10 04:18:24;;;;;;;11.60;10.30;;;17.90;99.90;;;;;;5030952;28;20553;-53
2021/07/10 04:20:51;;;;;;;11.10;10.10;;;17.90;99.90;;;;;;5031373;28;20970;-53
2021/07/10 04:23:17;;;;;;;11.80;10.67;;;17.90;99.90;;;;;;5031459;28;20432;-53
2021/07/10 04:25:44;;;;;;;13.00;10.70;;;17.90;99.90;;;;;;5031226;28;20977;-53
2021/07/10 04:28:11;;;;;;;11.40;10.20;;;17.90;99.90;;;;;;5030797;28;21090;-53
2021/07/10 04:30:39;;;;;;;14.23;11.17;;;17.90;99.90;;;;;;5031284;28;20441;-54
2021/07/10 04:33:06;;;;;;;13.23;12.00;;;17.90;99.90;;;;;;5013306;28;20511;-53
2021/07/10 04:35:33;;;;;;;13.50;12.20;;;17.90;99.90;;;;;;5031275;28;20448;-53
2021/07/10 04:37:59;;;;;;;13.97;12.57;;;17.90;99.90;;;;;;5030924;28;20449;-53
2021/07/10 04:40:26;;;;;;;13.53;12.23;;;17.90;99.90;;;;;;5030905;28;20931;-53
2021/07/10 04:42:52;;;;;;;14.37;12.27;;;17.90;99.90;;;;;;5031071;28;20442;-53
2021/07/10 04:45:19;;;;;;;13.80;12.50;;;17.90;99.90;;;;;;5030998;28;20453;-53
2021/07/10 04:47:47;;;;;;;14.80;12.40;;;17.90;99.90;;;;;;5031008;28;20433;-54
2021/07/10 04:50:16;;;;;;;12.40;11.20;;;17.90;99.90;;;;;;5030749;28;20444;-54
2021/07/10 04:52:43;;;;;;;13.60;12.30;;;17.90;99.90;;;;;;5030890;28;20909;-53
2021/07/10 04:55:12;;;;;;;14.00;12.60;;;17.90;99.90;;;;;;5031365;28;20491;-54
2021/07/10 04:57:39;;;;;;;15.03;12.07;;;17.90;99.90;;;;;;5030897;28;20473;-54
2021/07/10 05:00:08;;;;;;;12.93;11.70;;;17.90;99.90;;;;;;5030739;28;20816;-54
2021/07/10 05:02:34;;;;;;;13.17;11.87;;;17.90;99.90;;;;;;5030818;28;20440;-54
2021/07/10 05:05:03;;;;;;;12.20;10.90;;;17.90;99.90;;;;;;5030663;28;20453;-54
2021/07/10 05:07:30;;;;;;;14.17;12.67;;;17.90;99.90;;;;;;5031128;28;20439;-53
2021/07/10 05:09:56;;;;;;;14.53;11.80;;;17.90;99.90;;;;;;5033165;28;20489;-54
2021/07/10 05:12:23;;;;;;;17.47;11.90;;;17.90;99.90;;;;;;5034787;28;20833;-54
2021/07/10 05:14:51;;;;;;;12.87;11.57;;;18.00;99.90;;;;;;5034779;28;20508;-54
2021/07/10 05:17:18;;;;;;;17.33;12.03;;;18.00;99.90;;;;;;5034739;28;20441;-54
2021/07/10 05:19:45;;;;;;;13.07;11.87;;;18.00;99.90;;;;;;5034255;28;20945;-54
2021/07/10 05:22:14;;;;;;;13.80;12.27;;;18.00;99.90;;;;;;5034659;28;20450;-54
2021/07/10 05:24:41;;;;;;;15.57;11.70;;;18.00;99.90;;;;;;5034621;28;20460;-54
2021/07/10 05:27:08;;;;;;;12.67;11.30;;;18.10;99.90;;;;;;5016753;28;20460;-54
2021/07/10 05:29:35;;;;;;;13.60;12.27;;;18.10;99.90;;;;;;5033944;28;20836;-54
2021/07/10 05:32:02;;;;;;;13.30;11.47;;;18.10;99.90;;;;;;5034320;28;20480;-53
2021/07/10 05:34:29;;;;;;;14.87;13.37;;;18.10;99.90;;;;;;5034424;28;20453;-53
2021/07/10 05:36:55;;;;;;;13.10;11.90;;;18.10;99.90;;;;;;5034140;28;20450;-53
2021/07/10 05:39:23;;;;;;;12.33;10.97;;;18.10;99.90;;;;;;5033899;28;20433;-53
2021/07/10 05:41:50;;;;;;;12.87;11.50;;;18.10;99.90;;;;;;5034282;28;20453;-53
2021/07/10 05:44:17;;;;;;;13.60;12.20;;;18.20;99.90;;;;;;5033964;28;20460;-52
2021/07/10 05:46:43;;;;;;;12.27;10.97;;;18.20;99.90;;;;;;5033898;28;20433;-53
2021/07/10 05:49:10;;;;;;;15.43;11.77;;;18.20;99.90;;;;;;5033571;28;20481;-52
2021/07/10 05:51:37;;;;;;;15.03;12.47;;;18.20;99.90;;;;;;5034077;28;20434;-53
2021/07/10 05:54:03;;;;;;;13.80;12.50;;;18.20;99.90;;;;;;5033670;28;20481;-53
2021/07/10 05:56:31;;;;;;;18.90;12.30;;;18.30;99.90;;;;;;5016161;28;20835;-53
2021/07/10 05:58:58;;;;;;;14.93;12.30;;;18.30;99.90;;;;;;5033759;28;20549;-54
2021/07/10 06:01:24;;;;;;;14.73;11.77;;;18.30;99.90;;;;;;5033750;28;20467;-54
2021/07/10 06:03:51;;;;;;;13.20;11.90;;;18.30;99.90;;;;;;5033762;28;20774;-52
2021/07/10 06:06:18;;;;;;;13.23;11.83;;;18.40;99.90;;;;;;5033822;28;20437;-54
2021/07/10 06:08:44;;;;;;;12.30;11.03;;;18.50;99.90;;;;;;5033149;28;20500;-53
2021/07/10 06:11:11;;;;;;;13.70;11.13;;;18.60;99.90;;;;;;5033510;28;20446;-53
2021/07/10 06:13:39;;;;;;;11.90;10.80;;;18.70;99.90;;;;;;5033731;28;20467;-53
2021/07/10 06:16:06;;;;;;;15.03;12.20;;;18.80;99.90;;;;;;5033380;28;20439;-54
2021/07/10 06:18:33;;;;;;;13.90;11.53;;;19.00;99.90;;;;;;5033439;28;20430;-53
2021/07/10 06:20:59;;;;;;;10.50;9.43;;;19.00;99.90;;;;;;5032759;28;20757;-53
2021/07/10 06:23:26;;;;;;;12.83;11.40;;;19.20;99.90;;;;;;5033355;28;20446;-53
2021/07/10 06:25:52;;;;;;;14.23;10.73;;;19.30;99.90;;;;;;5033125;28;20456;-54
2021/07/10 06:28:19;;;;;;;12.60;10.10;;;19.40;99.90;;;;;;5032648;28;20931;-53
2021/07/10 06:30:47;;;;;;;10.80;9.73;;;19.50;99.90;;;;;;5033237;28;20939;-54
2021/07/10 06:33:14;;;;;;;12.90;11.00;;;19.50;99.90;;;;;;5033125;28;20904;-53
2021/07/10 06:35:40;;;;;;;11.80;9.70;;;19.60;99.90;;;;;;5033018;28;20483;-53
2021/07/10 06:38:07;;;;;;;11.63;10.53;;;19.60;99.90;;;;;;5032889;28;20444;-53
2021/07/10 06:40:34;;;;;;;12.00;10.80;;;19.60;99.90;;;;;;5032966;28;20427;-54
2021/07/10 06:43:01;;;;;;;13.07;11.80;;;19.60;99.90;;;;;;5032987;28;20442;-53
2021/07/10 06:45:27;;;;;;;12.77;10.80;;;19.60;99.90;;;;;;5033018;28;20482;-53
2021/07/10 06:47:58;;;;;;;11.37;10.20;;;19.60;99.90;;;;;;5032830;28;20447;-53
2021/07/10 06:50:24;;;;;;;11.20;9.00;;;19.70;99.90;;;;;;5032828;28;20483;-54
2021/07/10 06:52:51;;;;;;;12.07;10.87;;;19.90;99.90;;;;;;5032909;28;20448;-53
2021/07/10 06:55:18;;;;;;;11.30;10.10;;;20.10;99.90;;;;;;5032443;28;20472;-54
2021/07/10 06:57:45;;;;;;;9.60;8.57;;;20.20;99.90;;;;;;5032543;28;20880;-53
2021/07/10 07:00:14;;;;;;;10.10;9.10;;;20.30;99.90;;;;;;5032175;28;20462;-54
2021/07/10 07:02:41;;;;;;;10.73;9.63;;;20.40;99.90;;;;;;5032596;28;20451;-54
2021/07/10 07:05:10;;;;;;;9.03;8.13;;;20.50;99.90;;;;;;5032619;28;20467;-53
2021/07/10 07:07:38;;;;;;;10.30;9.33;;;20.60;99.90;;;;;;5032672;28;20862;-53
2021/07/10 07:10:07;;;;;;;10.47;9.43;;;20.60;99.90;;;;;;5031872;28;20476;-53
2021/07/10 07:12:34;;;;;;;14.07;9.80;;;20.70;99.90;;;;;;5032478;28;20425;-55
2021/07/10 07:15:01;;;;;;;10.50;9.60;;;20.70;99.90;;;;;;5032288;28;20461;-53
2021/07/10 07:17:27;;;;;;;10.10;9.10;;;20.80;99.90;;;;;;5032184;28;20437;-53
2021/07/10 07:19:54;;;;;;;9.77;8.80;;;20.70;99.90;;;;;;5032373;28;20434;-54
2021/07/10 07:22:22;;;;;;;10.40;9.47;;;20.70;99.90;;;;;;5031970;28;20459;-53
2021/07/10 07:24:48;;;;;;;11.80;8.63;;;20.70;99.90;;;;;;5032314;28;20563;-54
2021/07/10 07:27:15;;;;;;;9.23;8.33;;;20.60;99.90;;;;;;5032356;28;20944;-54
2021/07/10 07:29:42;;;;;;;10.50;9.43;;;20.70;99.90;;;;;;5031531;28;20998;-55
2021/07/10 07:32:09;;;;;;;9.30;8.40;;;20.80;99.90;;;;;;5031827;28;20433;-54
2021/07/10 07:34:36;;;;;;;12.53;9.07;;;20.90;99.90;;;;;;5031936;28;20456;-52
2021/07/10 07:37:03;;;;;;;11.37;9.63;;;21.10;99.90;;;;;;5031739;28;20460;-54
2021/07/10 07:39:31;;;;;;;9.30;8.40;;;21.10;99.90;;;;;;5031653;28;20433;-53
2021/07/10 07:41:58;;;;;;;10.53;9.50;;;21.20;99.90;;;;;;5031755;28;20430;-53
2021/07/10 07:44:24;;;;;;;11.10;9.73;;;21.30;99.90;;;;;;5031713;28;20662;-53
2021/07/10 07:46:51;;;;;;;9.23;8.43;;;21.40;99.90;;;;;;5031622;28;20460;-53
2021/07/10 07:49:18;;;;;;;9.17;8.37;;;21.30;99.90;;;;;;5030972;28;20481;-53
2021/07/10 07:51:44;;;;;;;8.73;7.93;;;21.30;99.90;;;;;;5031278;28;20567;-53
2021/07/10 07:54:11;;;;;;;9.27;8.43;;;21.40;99.90;;;;;;5031458;28;20480;-53
2021/07/10 07:56:39;;;;;;;12.73;7.40;;;21.40;99.90;;;;;;5031583;28;20448;-53
2021/07/10 07:59:05;;;;;;;7.60;6.90;;;21.30;99.90;;;;;;5030843;28;20531;-53
2021/07/10 08:01:32;;;;;;;9.10;8.30;;;21.40;99.90;;;;;;5031504;28;20864;-53
2021/07/10 08:03:59;;;;;;;8.63;7.73;;;21.40;99.90;;;;;;5031371;28;21437;-52
2021/07/10 08:06:26;;;;;;;7.50;6.80;;;21.40;99.90;;;;;;5031375;28;20498;-52
2021/07/10 08:08:52;;;;;;;8.77;7.57;;;21.40;99.90;;;;;;5030660;28;20939;-53
2021/07/10 08:11:19;;;;;;;8.43;7.63;;;21.40;99.90;;;;;;5031080;28;20437;-54
2021/07/10 08:13:48;;;;;;;7.33;6.60;;;21.50;99.90;;;;;;5031261;28;20444;-55
2021/07/10 08:16:15;;;;;;;8.80;6.37;;;21.60;99.90;;;;;;5031236;28;20531;-55
2021/07/10 08:18:42;;;;;;;7.40;6.70;;;21.30;99.90;;;;;;5030557;28;20511;-54
2021/07/10 08:21:08;;;;;;;10.70;6.90;;;21.50;99.90;;;;;;5031002;28;20929;-55
2021/07/10 08:23:35;;;;;;;8.57;7.27;;;21.50;99.90;;;;;;5031107;28;20901;-54
2021/07/10 08:26:03;;;;;;;8.10;6.90;;;21.60;99.90;;;;;;5031106;28;20450;-54
2021/07/10 08:28:29;;;;;;;7.40;6.70;;;21.60;99.90;;;;;;5030427;28;20442;-55
2021/07/10 08:30:58;;;;;;;13.37;7.57;;;21.70;99.90;;;;;;5030708;28;20481;-54
2021/07/10 08:33:25;;;;;;;7.07;6.27;;;21.60;99.90;;;;;;5030843;28;21069;-55
2021/07/10 08:35:51;;;;;;;10.93;6.80;;;21.70;99.90;;;;;;5030937;28;20466;-54
2021/07/10 08:38:18;;;;;;;6.97;6.30;;;21.70;99.90;;;;;;5030839;28;20430;-54
2021/07/10 08:40:45;;;;;;;7.70;6.20;;;21.80;99.90;;;;;;5031109;28;20541;-54
2021/07/10 08:43:12;;;;;;;6.60;6.03;;;21.70;99.90;;;;;;5031017;28;20439;-55
2021/07/10 08:45:39;;;;;;;7.00;6.23;;;21.70;99.90;;;;;;5030861;28;20462;-54
2021/07/10 08:48:08;;;;;;;7.20;5.80;;;21.60;99.90;;;;;;5030278;28;20446;-54
2021/07/10 08:50:35;;;;;;;7.20;5.60;;;21.60;99.90;;;;;;5030661;28;20593;-54
2021/07/10 08:53:02;;;;;;;6.40;5.60;;;21.70;99.90;;;;;;5030539;28;20433;-55
2021/07/10 08:55:29;;;;;;;8.43;5.10;;;21.80;99.90;;;;;;5030475;28;20466;-55
2021/07/10 08:57:57;;;;;;;8.43;5.30;;;21.80;99.90;;;;;;5029842;28;20430;-54
2021/07/10 09:00:27;;;;;;;6.20;5.70;;;21.80;99.90;;;;;;5012562;28;20458;-54
2021/07/10 09:02:55;;;;;;;6.60;6.00;;;21.80;99.90;;;;;;5030586;28;20434;-55
2021/07/10 09:05:23;;;;;;;6.47;5.53;;;21.80;99.90;;;;;;5030670;28;20519;-54
2021/07/10 09:08:23;;;;;;;7.00;6.40;;;21.90;99.90;;;;;;5030664;28;20427;-54
2021/07/10 09:11:01;;;;;;;6.70;6.10;;;22.10;99.90;;;;;;5012494;28;20982;-55
2021/07/10 09:13:34;;;;;;;6.80;6.10;;;22.20;99.90;;;;;;5030783;28;20430;-55
2021/07/10 09:16:06;;;;;;;8.93;6.40;;;22.20;99.90;;;;;;5030402;28;20467;-54
2021/07/10 09:18:38;;;;;;;9.00;6.10;;;22.30;99.90;;;;;;5030251;28;20427;-54
2021/07/10 09:21:06;;;;;;;7.60;6.90;;;22.50;99.90;;;;;;5029877;28;20443;-55
2021/07/10 09:23:38;;;;;;;6.67;6.00;;;22.60;99.90;;;;;;5029484;28;20477;-54
2021/07/10 09:26:17;;;;;;;7.63;6.43;;;22.60;99.90;;;;;;5030149;28;20449;-54
2021/07/10 09:28:45;;;;;;;8.30;7.37;;;22.70;99.90;;;;;;5029840;28;20440;-55
2021/07/10 09:31:24;;;;;;;7.50;6.83;;;22.70;99.90;;;;;;5030037;28;20586;-54
2021/07/10 09:33:57;;;;;;;10.23;6.67;;;22.80;99.90;;;;;;5030017;28;20437;-55
2021/07/10 09:36:25;;;;;;;12.70;7.20;;;23.00;99.90;;;;;;5030161;28;20843;-56
2021/07/10 09:38:53;;;;;;;8.23;7.50;;;23.00;99.90;;;;;;5029564;28;20433;-54
2021/07/10 09:41:26;;;;;;;6.50;6.00;;;23.20;99.90;;;;;;5029799;28;20502;-54
2021/07/10 09:43:56;;;;;;;8.57;7.60;;;23.30;99.90;;;;;;5029677;28;20436;-55
2021/07/10 09:47:09;;;;;;;8.83;7.93;;;23.30;99.90;;;;;;5029699;28;20445;-54
2021/07/10 09:49:36;;;;;;;7.23;6.60;;;23.40;99.90;;;;;;5029839;28;20939;-55
2021/07/10 09:52:11;;;;;;;7.10;6.50;;;23.30;99.90;;;;;;5029935;28;20429;-54
2021/07/10 09:54:40;;;;;;;7.97;7.27;;;23.30;99.80;;;;;;5012090;28;20475;-54
2021/07/10 09:57:16;;;;;;;8.67;7.83;;;23.30;99.70;;;;;;5014879;28;20453;-54
2021/07/10 09:59:49;;;;;;;8.77;7.87;;;23.30;99.30;;;;;;5032716;28;20432;-55
2021/07/10 10:02:25;;;;;;;7.53;6.90;;;23.40;99.20;;;;;;5033349;28;20477;-55
2021/07/10 10:04:52;;;;;;;7.33;6.73;;;23.50;99.20;;;;;;5033603;28;20456;-54
2021/07/10 10:07:22;;;;;;;11.17;7.60;;;23.40;99.00;;;;;;5033394;28;20492;-54
2021/07/10 10:09:55;;;;;;;9.90;7.63;;;23.40;99.00;;;;;;5032634;28;20504;-55
2021/07/10 10:12:22;;;;;;;8.10;7.40;;;23.40;99.00;;;;;;5033042;28;20436;-54
2021/07/10 10:14:51;;;;;;;11.60;6.83;;;23.40;98.90;;;;;;5033011;28;20989;-55
2021/07/10 10:17:19;;;;;;;9.40;7.00;;;23.40;98.90;;;;;;5033219;28;20437;-54
2021/07/10 10:19:46;;;;;;;14.57;6.33;;;23.40;98.60;;;;;;5032939;28;20442;-54
2021/07/10 10:22:15;;;;;;;8.10;7.40;;;23.50;98.30;;;;;;5033115;28;20452;-55
2021/07/10 10:24:46;;;;;;;7.90;7.13;;;23.60;98.30;;;;;;5033064;28;20460;-55
2021/07/10 10:27:13;;;;;;;7.80;7.10;;;23.80;98.30;;;;;;5033135;28;20456;-55
2021/07/10 10:29:41;;;;;;;6.50;5.87;;;23.90;98.30;;;;;;5032194;28;20973;-55
2021/07/10 10:32:08;;;;;;;6.57;6.00;;;24.00;97.40;;;;;;5032983;28;20527;-55
2021/07/10 10:34:36;;;;;;;7.77;6.40;;;24.00;97.00;;;;;;5032979;28;20465;-54
2021/07/10 10:37:04;;;;;;;6.10;5.60;;;24.10;96.90;;;;;;5032439;28;20942;-55
2021/07/10 10:39:34;;;;;;;8.73;5.93;;;24.10;96.90;;;;;;5032765;28;20445;-55
2021/07/10 10:42:06;;;;;;;6.70;5.67;;;24.20;96.70;;;;;;5034100;28;20578;-55
2021/07/10 10:44:40;;;;;;;9.57;5.93;;;24.30;96.30;;;;;;5015269;28;20494;-54
2021/07/10 10:47:09;;;;;;;7.10;6.50;;;24.40;96.10;;;;;;5032896;28;20430;-54
2021/07/10 10:49:45;;;;;;;8.37;5.53;;;24.50;96.00;;;;;;5032586;28;20506;-55
2021/07/10 10:52:29;;;;;;;7.67;6.40;;;24.40;95.90;;;;;;5032918;28;20843;-55
2021/07/10 10:54:57;;;;;;;6.50;5.00;;;24.30;95.00;;;;;;5032927;28;20815;-55
2021/07/10 10:57:43;;;;;;;7.17;5.87;;;24.20;95.40;;;;;;5032447;28;20545;-55
2021/07/10 11:00:14;;;;;;;7.07;6.37;;;24.20;95.30;;;;;;5032034;28;20462;-54
2021/07/10 11:02:56;;;;;;;8.60;5.90;;;24.20;95.10;;;;;;5032779;28;20446;-55
2021/07/10 11:05:52;;;;;;;7.27;5.60;;;24.20;95.00;;;;;;5032183;28;20541;-55
2021/07/10 11:08:28;;;;;;;6.57;5.80;;;24.20;95.20;;;;;;5031885;28;20446;-56
2021/07/10 11:11:18;;;;;;;10.23;5.57;;;24.20;95.60;;;;;;5032212;28;20561;-55
2021/07/10 11:14:10;;;;;;;6.77;5.07;;;24.10;94.20;;;;;;5032217;28;20437;-55
2021/07/10 11:16:53;;;;;;;5.50;5.00;;;24.00;94.50;;;;;;5032577;28;20449;-55
2021/07/10 11:19:46;;;;;;;6.83;5.63;;;23.90;94.70;;;;;;5030984;28;20545;-55
2021/07/10 11:22:55;;;;;;;10.27;5.40;;;23.90;94.00;;;;;;5032111;28;20438;-55
2021/07/10 11:26:00;;;;;;;6.13;5.60;;;23.80;94.50;;;;;;5032417;28;20833;-56
2021/07/10 11:28:29;;;;;;;4.77;4.33;;;23.80;94.50;;;;;;5008380;28;20538;-53
2021/07/10 11:30:59;;;;;;;5.00;4.50;;;23.90;94.80;;;;;;5032050;28;20540;-54
2021/07/10 11:34:02;;;;;;;5.83;5.20;;;23.90;94.50;;;;;;5014121;28;20449;-53
2021/07/10 11:36:59;;;;;;;5.60;5.07;;;24.00;93.90;;;;;;5032059;28;20593;-54
2021/07/10 11:39:57;;;;;;;6.50;5.90;;;24.00;93.60;;;;;;4986849;28;20551;-54
2021/07/10 11:42:44;;;;;;;5.47;4.77;;;24.00;93.60;;;;;;5031644;28;20436;-54
2021/07/10 11:45:37;;;;;;;6.20;5.27;;;24.00;94.50;;;;;;5031599;28;20563;-54
2021/07/10 11:48:26;;;;;;;8.33;5.27;;;24.00;94.00;;;;;;5031401;28;20465;-54
2021/07/10 11:51:10;;;;;;;5.37;4.83;;;24.10;94.00;;;;;;5031272;28;20940;-54
2021/07/10 11:53:37;;;;;;;8.27;5.47;;;24.10;93.30;;;;;;5031155;28;21045;-54
2021/07/10 11:56:05;;;;;;;6.20;5.57;;;24.10;93.70;;;;;;5030978;28;20472;-54
2021/07/10 11:58:33;;;;;;;5.57;4.67;;;24.10;93.50;;;;;;5030651;28;20443;-54
2021/07/10 12:01:01;;;;;;;7.17;5.00;;;24.20;93.30;;;;;;5031195;28;20451;-55
2021/07/10 12:03:29;;;;;;;7.73;4.93;;;24.20;93.20;;;;;;5030836;28;20892;-54
2021/07/10 12:05:58;;;;;;;7.37;5.53;;;24.20;93.40;;;;;;5030939;28;20881;-55
2021/07/10 12:08:26;;;;;;;6.50;5.57;;;24.20;93.50;;;;;;5030808;28;20449;-54
2021/07/10 12:10:55;;;;;;;5.67;4.50;;;24.30;93.30;;;;;;5030640;28;20987;-54
2021/07/10 12:13:24;;;;;;;6.30;5.13;;;24.40;93.20;;;;;;5030895;28;20824;-54
2021/07/10 12:15:52;;;;;;;6.63;5.40;;;24.50;92.90;;;;;;5031081;28;20585;-56
2021/07/10 12:18:20;;;;;;;6.07;5.57;;;24.50;92.90;;;;;;5029551;28;20999;-54
2021/07/10 12:20:50;;;;;;;7.17;5.97;;;24.50;93.10;;;;;;5030936;28;20442;-54
2021/07/10 12:23:19;;;;;;;10.10;5.10;;;24.60;92.80;;;;;;5030869;28;20428;-55
2021/07/10 12:25:49;;;;;;;7.93;4.90;;;24.60;92.50;;;;;;5030781;28;20477;-55
2021/07/10 12:28:17;;;;;;;6.27;5.60;;;24.70;92.10;;;;;;5030069;28;20440;-54
2021/07/10 12:30:47;;;;;;;4.83;4.33;;;24.70;92.10;;;;;;5030486;28;20474;-55
2021/07/10 12:33:37;;;;;;;9.80;5.20;;;24.80;92.30;;;;;;5030358;28;20486;-54
2021/07/10 12:36:11;;;;;;;10.40;5.93;;;24.80;91.60;;;;;;5012805;28;20530;-55
2021/07/10 12:38:50;;;;;;;5.00;4.60;;;24.80;91.90;;;;;;5030655;28;20532;-55
2021/07/10 12:41:22;;;;;;;6.30;4.53;;;24.90;91.90;;;;;;5030739;28;20956;-55
2021/07/10 12:43:49;;;;;;;4.40;3.97;;;24.90;91.50;;;;;;5030697;28;20435;-55
2021/07/10 12:46:16;;;;;;;5.73;4.57;;;25.00;91.40;;;;;;5031030;28;20463;-55
2021/07/10 12:48:43;;;;;;;6.00;4.53;;;25.10;91.20;;;;;;5030454;28;20510;-55
2021/07/10 12:51:12;;;;;;;5.30;4.73;;;25.20;91.00;;;;;;5030596;28;20482;-55